KMDH/MDH METAR and TAF weather

Enter ICAO airport designator
Station Type Date Time Source
KMDH METAR 2019/04/25 09:52 UTC NOAA

KMDH 250952Z AUTO 00000KT 5SM -RA BR FEW007 BKN025 OVC036 16/16 A2979 RMK AO2 SLP084 P0002 T01610161


Station Type Date Time Source
KMDH Decoded METAR 2019/04/25 09:52 UTC NOAA

SOUTHERN ILLINOIS AIRPORT, IL, United States (KMDH) 37-47N 089-15W 130M
Apr 25, 2019 - 05:52 AM EDT / 2019.04.25 0952 UTC
Wind: Calm:0
Visibility: 5 mile(s):0
Sky conditions: overcast
Weather: light rain; mist
Precipitation last hour: 0.02 inches
Temperature: 61.0 F (16.1 C)
Dew Point: 61.0 F (16.1 C)
Relative Humidity: 100%
Pressure (altimeter): 29.79 in. Hg (1008 hPa)
ob: KMDH 250952Z AUTO 00000KT 5SM -RA BR FEW007 BKN025 OVC036 16/16 A2979 RMK AO2 SLP084 P0002 T01610161
cycle: 10

Station Type Date Time Source
KMDH TAF UTC NOAA

Error!

Example: see airport list